This is the latest recevied weather packets stored in our database for station/object DH0DM-13. If no packets are shown the sender has not sent any weather packets the latest 10 day(s).
| Time | Temp. | Humidity | Pressure | Rain* | Wind** | Luminosity | Snow |
|---|---|---|---|---|---|---|---|
| 1787649449 | 20° C | 55% | 990.3 hPa | 0 mm | 13.86 m/s, 120° | - | - |
| 1787648848 | 19.44° C | 54% | 990.6 hPa | 0 mm | 16.99 m/s, 78° | - | - |
| 1787648248 | 19.44° C | 56% | 990.3 hPa | 0 mm | 16.09 m/s, 63° | - | - |
| 1787647647 | 19.44° C | 56% | 990.5 hPa | 0 mm | 16.99 m/s, 109° | - | - |
| 1787647046 | 19.44° C | 59% | 990.3 hPa | 0 mm | 4.92 m/s, 63° | - | - |
| 1787646445 | 18.89° C | 62% | 990.3 hPa | 0 mm | 6.71 m/s, 120° | - | - |
| 1787645844 | 18.33° C | 63% | 990.4 hPa | 0 mm | 10.28 m/s, 44° | - | - |
| 1787645243 | 18.33° C | 64% | 990.5 hPa | 0 mm | 5.81 m/s, 57° | - | - |
| 1787644642 | 18.33° C | 64% | 990.7 hPa | 0 mm | 8.94 m/s, 55° | - | - |
| 1787644041 | 18.33° C | 65% | 990.5 hPa | 0 mm | 10.28 m/s, 303° | - | - |
| 1787643441 | 17.22° C | 69% | 990.5 hPa | 0 mm | 3.58 m/s, 259° | - | - |
| 1787642839 | 16.67° C | 70% | 990.7 hPa | 0 mm | 8.05 m/s, 98° | - | - |
| 1787642239 | 16.67° C | 71% | 990.5 hPa | 0 mm | 4.02 m/s, 50° | - | - |
| 1787641638 | 16.11° C | 72% | 990.3 hPa | 0 mm | 4.47 m/s, 32° | - | - |
| 1787641037 | 15.56° C | 73% | 990.5 hPa | 0 mm | 4.92 m/s, 77° | - | - |
| 1787640436 | 15° C | 75% | 990.8 hPa | 0 mm | 12.07 m/s, 74° | - | - |
| 1787639835 | 15° C | 75% | 990.7 hPa | 0 mm | 7.6 m/s, 74° | - | - |
| 1787639234 | 15° C | 76% | 990.8 hPa | 0 mm | 5.36 m/s, 67° | - | - |
| 1787638633 | 14.44° C | 77% | 990.7 hPa | 0 mm | 13.86 m/s, 70° | - | - |
| 1787638032 | 14.44° C | 79% | 990.6 hPa | 0 mm | 6.71 m/s, 89° | - | - |
| 1787637431 | 13.89° C | 79% | 990.9 hPa | 0 mm | 6.26 m/s, 91° | - | - |
| 1787636830 | 13.33° C | 82% | 990.7 hPa | 0 mm | 2.68 m/s, 55° | - | - |
| 1787636229 | 13.89° C | 80% | 990.7 hPa | 0 mm | 2.68 m/s, 120° | - | - |
| 1787635628 | 12.22° C | 85% | 990.9 hPa | 0 mm | 1.34 m/s, 72° | - | - |
| 1787635027 | 12.22° C | 87% | 990.7 hPa | 0 mm | 4.92 m/s, 72° | - | - |
* Rain since midnight (hover to see other rain measurements)
** Current wind speed in m/s (hover to see current wind gust speed)